Flight Track Log - Related Links

Times and Time Zones

All times are in EDT time to prevent confusion due to time zone crossing. See the OPT439 flight status page for this flight to view local times or setup timezone preferences in your user account.

Time Position Orientation Groundspeed Altitude Reporting Facility
EDT Latitude Longitude Course Direction KTS MPH feet Rate Location/Type
Sun 09:00:35 PM 41.2383 -70.2097 298° West 227 261 5,400  Level Boston Center
Sun 09:01:35 PM 41.2997 -70.2517 333° Northwest 217 250 8,300 2,331 Climbing Boston Center
Sun 09:02:36 PM 41.3650 -70.2911 336° Northwest 233 268 10,100 2,033 Climbing Boston Center
Sun 09:03:36 PM 41.3753 -70.3986 277° West 254 292 12,400 1,950 Climbing Boston Center
Sun 09:04:36 PM 41.3836 -70.5172 275° West 281 323 14,000 1,700 Climbing Boston Center
Sun 09:05:00 PM 41.4084 -70.6627 298° West  Level FlightAware Approximate
Sun 09:05:36 PM 41.4000 -70.6275 281° West 330 380 15,800  Level Boston Center
Sun 09:06:37 PM 41.4542 -70.7589 299° West 355 409 17,600 1,412 Climbing Boston Center
Sun 09:07:35 PM 41.4975 -70.8658 298° West 360 414 18,600 1,692 Climbing Boston Center
Sun 09:08:34 PM 41.5533 -71.0031 299° West 372 428 20,900 1,664 Climbing Boston Center
Sun 09:09:34 PM 41.6008 -71.1214 298° West 372 428 21,900 545 Climbing Boston Center
Sun 09:10:35 PM 41.6481 -71.2567 295° West 379 436 22,000 49 Climbing Boston Center
Sun 09:11:36 PM 41.6972 -71.3919 296° West 397 457 22,000  Level Boston Center
Sun 09:12:34 PM 41.7464 -71.5247 296° West 397 457 22,000  Level Boston Center
Sun 09:13:35 PM 41.7847 -71.6356 295° West 392 451 22,000  Level Boston Center
Sun 09:14:35 PM 41.8294 -71.7658 295° West 387 445 22,000  Level Boston Center
Sun 09:15:35 PM 41.8761 -71.8964 296° West 387 445 22,000  Level Boston Center
Sun 09:16:36 PM 41.9244 -72.0328 296° West 387 445 22,000  Level Boston Center
Sun 09:17:36 PM 41.9728 -72.1719 295° West 397 457 22,000  Level Boston Center
Sun 09:18:34 PM 42.0211 -72.3089 295° West 402 463 22,000 -559 Level Boston Center
Sun 09:19:34 PM 42.0689 -72.4456 295° West 402 463 20,900 -1,884 Descending Boston Center
Sun 09:20:35 PM 42.1211 -72.5914 296° West 395 455 18,200 -2,361 Descending Boston Center
Sun 09:21:36 PM 42.1561 -72.7175 291° West 382 440 16,100 -992 Descending Boston Center
Sun 09:22:48 PM 42.1539 -72.8406 269° West 354 407 16,000 -46 Descending Boston Center
Sun 09:23:47 PM 42.1447 -72.9917 265° West 340 391 16,000 -50 Level Boston Center
Sun 09:24:47 PM 42.1400 -73.0953 267° West 333 383 15,900 -843 Descending Boston Center
Sun 09:25:48 PM 42.1289 -73.2267 264° West 327 376 14,300 -1,600 Descending Boston Center
Sun 09:26:47 PM 42.1194 -73.3581 265° West 345 397 12,700 -1,150 Descending Boston Center
Sun 09:27:48 PM 42.1081 -73.4894 263° West 357 411 12,000 -353 Descending Boston Center
Sun 09:28:46 PM 42.1003 -73.6236 266° West 357 411 12,000  Level Boston Center
Sun 09:29:47 PM 42.0908 -73.7353 264° West 357 411 12,000  Level Boston Center
Sun 09:30:46 PM 42.0808 -73.8778 265° West 351 404 12,000  Level Boston Center
Sun 09:31:47 PM 42.0708 -73.9922 263° West 346 398 12,000 -150 Level Boston Center
Sun 09:32:46 PM 42.0214 -74.1056 240° Southwest 326 375 11,700 -600 Descending Boston Center
Sun 09:33:47 PM 41.9658 -74.1964 231° Southwest 338 389 10,800 -787 Descending Boston Center
Sun 09:34:48 PM 41.9017 -74.2978 230° Southwest 338 389 10,100 -353 Descending Boston Center
Sun 09:35:46 PM 41.8383 -74.3517 212° Southwest 318 366 10,100  Level Boston Center
Sun 09:36:48 PM 41.7519 -74.3992 202° Southwest 308 354 10,100  Level Boston Center
Sun 09:37:46 PM 41.6889 -74.4361 204° Southwest 288 331 10,100 -353 Level Boston Center
Sun 09:38:47 PM 41.6089 -74.4808 203° Southwest 288 331 9,400 -1,200 Descending Boston Center
Sun 09:39:46 PM 41.5436 -74.5175 203° Southwest 288 331 7,700 -1,500 Descending Boston Center
Sun 09:40:47 PM 41.4739 -74.5569 203° Southwest 271 312 6,400 -636 Descending Boston Center
Sun 09:42:17 PM 41.3667 -74.6167 203° Southwest 265 305 6,100 -120 Descending New York TRACON
Sun 09:43:17 PM 41.3000 -74.6333 191° South 262 302 6,100 -550 Level New York TRACON
Sun 09:44:17 PM 41.2333 -74.6167 169° South 271 312 5,000 -1,000 Descending New York TRACON
Sun 09:45:17 PM 41.1833 -74.5333 129° Southeast 281 323 4,100 -500 Descending New York TRACON
Sun 09:46:17 PM 41.1500 -74.4500 118° Southeast 262 302 4,000 -500 Descending New York TRACON
Sun 09:47:17 PM 41.1333 -74.3500 102° East 272 313 3,100 -450 Descending New York TRACON
Sun 09:48:17 PM 41.1000 -74.2667 118° Southeast 257 296 3,100  Level New York TRACON
Sun 09:49:17 PM 41.0667 -74.1833 118° Southeast 246 283 3,100 -368 Level New York TRACON
Sun 09:50:11 PM 41.0500 -74.1167 108° East 192 221 2,400 -526 Descending New York TRACON
Sun 09:51:11 PM 41.0167 -74.0833 143° Southeast 158 182 2,100 -143 Descending New York TRACON
Sun 09:52:17 PM 40.9833 -74.0500 143° Southeast 154 177 2,100 -150 Level New York TRACON
Sun 09:53:11 PM 40.9500 -74.0500 180° South 140 161 1,800 -526 Descending New York TRACON
Sun 09:54:11 PM 40.9167 -74.0500 180° South 138 159 1,100 -700 Descending New York TRACON
Sun 09:55:11 PM 40.8667 -74.0500 180° South 129 148 400 -700 Descending New York TRACON

Login

Don't have an account? Register now (free) for customized features, flight alerts, and more!